Time;durP1;ratioP1;P1;durP2;ratioP2;P2;SDS_P1;SDS_P2;PMS_P1;PMS_P2;Temp;Humidity;BMP_temperature;BMP_pressure;BME280_temperature;BME280_humidity;BME280_pressure;Samples;Min_cycle;Max_cycle;Signal;HPM_P1;HPM_P2
2022/07/06 00:01:21;;;;;;;26.77;2.47;;;;;;;25.94;50.63;99971.97;7310816;19;130968;-38
2022/07/06 00:03:47;;;;;;;44.50;3.97;;;;;;;25.93;51.43;99972.97;7311740;19;129406;-39
2022/07/06 00:06:12;;;;;;;22.53;2.17;;;;;;;25.93;51.76;99961.59;7313460;19;129273;-39
2022/07/06 00:08:39;;;;;;;61.90;5.03;;;;;;;25.95;51.92;99944.63;7311765;19;129873;-40
2022/07/06 00:11:05;;;;;;;9.30;1.38;;;;;;;25.94;51.57;99945.63;7312809;19;129739;-39
2022/07/06 00:13:30;;;;;;;41.67;3.37;;;;;;;25.96;51.17;99946.28;7313187;19;129291;-38
2022/07/06 00:15:55;;;;;;;35.33;3.25;;;;;;;25.95;51.35;99934.06;7313240;19;128939;-39
2022/07/06 00:18:21;;;;;;;32.03;2.67;;;;;;;25.88;51.35;99909.38;7311689;19;130411;-38
2022/07/06 00:20:46;;;;;;;21.97;2.17;;;;;;;25.94;51.54;99916.63;7310063;19;129195;-40
2022/07/06 00:23:12;;;;;;;44.23;3.67;;;;;;;25.96;51.25;99927.84;7311381;19;129100;-38
2022/07/06 00:25:37;;;;;;;25.63;2.37;;;;;;;25.93;52.32;99936.06;7313085;19;129181;-38
2022/07/06 00:28:03;;;;;;;26.20;2.40;;;;;;;25.96;52.22;99935.75;7313234;19;130246;-38
2022/07/06 00:30:28;;;;;;;28.67;2.40;;;;;;;25.96;51.45;99948.91;7310523;19;131112;-40
2022/07/06 00:32:54;;;;;;;20.53;2.23;;;;;;;25.93;51.67;99946.63;7313072;19;129118;-39
2022/07/06 00:35:19;;;;;;;31.80;2.87;;;;;;;25.95;51.89;99936.72;7313134;19;129147;-42
2022/07/06 00:37:45;;;;;;;38.43;3.43;;;;;;;25.96;52.36;99906.75;7313443;19;129677;-40
2022/07/06 00:40:10;;;;;;;10.67;1.33;;;;;;;25.87;51.52;99872.63;7310587;19;129522;-38
2022/07/06 00:42:43;;;;;;;38.13;3.30;;;;;;;25.89;53.89;99879.41;7313401;19;129249;-40
2022/07/06 00:45:10;;;;;;;27.83;2.53;;;;;;;25.94;51.95;99887.66;7313021;19;130023;-38
2022/07/06 00:47:36;;;;;;;33.92;3.03;;;;;;;25.94;51.58;99871.84;7312485;19;131590;-42
2022/07/06 00:50:21;;;;;;;23.20;2.10;;;;;;;25.93;52.88;99870.22;7311091;19;131027;-38
2022/07/06 00:53:00;;;;;;;30.42;2.78;;;;;;;25.86;54.43;99853.38;7311474;19;129321;-38
2022/07/06 00:55:28;;;;;;;36.45;3.25;;;;;;;25.93;51.97;99857.03;7312472;19;129179;-39
2022/07/06 00:57:54;;;;;;;23.88;2.15;;;;;;;25.95;51.64;99854.22;7313327;19;129011;-39
2022/07/06 01:00:22;;;;;;;41.47;3.45;;;;;;;25.93;52.44;99866.75;7309206;19;129574;-41
2022/07/06 01:02:47;;;;;;;19.98;2.13;;;;;;;25.89;51.94;99887.31;7312754;19;129280;-38
2022/07/06 01:05:14;;;;;;;32.07;2.87;;;;;;;25.89;51.69;99897.84;7312029;19;129123;-38
2022/07/06 01:07:41;;;;;;;26.77;2.50;;;;;;;25.90;52.21;99888.94;7312589;19;129959;-40
2022/07/06 01:10:09;;;;;;;28.13;2.50;;;;;;;25.92;51.66;99891.41;7310050;19;129683;-38
2022/07/06 01:12:35;;;;;;;38.42;3.28;;;;;;;25.80;52.24;99877.72;7312525;19;129330;-39
2022/07/06 01:15:01;;;;;;;;;;;;;;;25.96;53.84;99893.59;7313241;19;129975;-38
2022/07/06 01:17:28;;;;;;;45.60;4.00;;;;;;;25.83;52.45;99877.41;7311208;19;131587;-39
2022/07/06 01:19:53;;;;;;;21.38;2.03;;;;;;;25.91;52.33;99893.25;7310751;19;129775;-38
2022/07/06 01:22:19;;;;;;;42.10;3.30;;;;;;;25.92;52.58;99886.97;7310121;19;129446;-39
2022/07/06 01:24:44;;;;;;;23.20;1.97;;;;;;;25.92;52.57;99892.25;7312527;19;130024;-39
2022/07/06 01:27:09;;;;;;;22.33;2.20;;;;;;;25.93;52.28;99895.72;7312127;19;129151;-38
2022/07/06 01:29:35;;;;;;;39.97;3.60;;;;;;;25.93;52.76;99895.72;7308314;19;129361;-38
2022/07/06 01:32:01;;;;;;;34.17;2.97;;;;;;;25.91;52.47;99895.88;7313185;19;129624;-40
2022/07/06 01:34:27;;;;;;;35.80;3.27;;;;;;;25.90;52.30;99888.94;7312158;19;129336;-37
2022/07/06 01:36:53;;;;;;;23.80;2.47;;;;;;;25.90;51.86;99885.50;7311698;19;129465;-37
2022/07/06 01:39:18;;;;;;;39.20;3.38;;;;;;;25.81;52.05;99874.13;7309492;19;130336;-39
2022/07/06 01:41:44;;;;;;;26.53;2.40;;;;;;;25.90;52.72;99878.41;7307944;19;129282;-39
2022/07/06 01:44:10;;;;;;;39.77;3.30;;;;;;;25.89;51.77;99868.88;7309126;19;130817;-38
2022/07/06 01:46:35;;;;;;;44.13;3.73;;;;;;;25.90;52.36;99867.88;7311236;19;129516;-38
2022/07/06 01:49:01;;;;;;;31.53;2.77;;;;;;;25.89;52.58;99868.88;7309785;19;131507;-39
2022/07/06 01:51:26;;;;;;;27.23;2.40;;;;;;;25.91;52.86;99863.44;7311865;19;129400;-38
2022/07/06 01:53:52;;;;;;;53.83;4.60;;;;;;;25.90;52.57;99861.78;7310248;19;129368;-41
2022/07/06 01:56:19;;;;;;;29.67;2.60;;;;;;;25.90;52.59;99869.69;7312029;19;129238;-38
2022/07/06 01:58:46;;;;;;;31.00;2.55;;;;;;;25.89;52.69;99874.13;7310384;19;131285;-38
2022/07/06 02:01:17;;;;;;;38.63;3.47;;;;;;;25.81;52.28;99860.94;7308162;19;129702;-40
2022/07/06 02:03:43;;;;;;;28.30;2.58;;;;;;;25.89;52.38;99881.22;7309937;19;128798;-39
2022/07/06 02:06:09;;;;;;;23.85;2.15;;;;;;;25.89;53.12;99879.41;7310905;19;129429;-38
2022/07/06 02:08:35;;;;;;;47.10;4.35;;;;;;;25.86;52.39;99874.47;7311208;19;130538;-38
2022/07/06 02:11:02;;;;;;;36.33;3.28;;;;;;;25.87;52.17;99868.19;7311312;19;130725;-37
2022/07/06 02:13:28;;;;;;;41.55;3.78;;;;;;;25.87;52.08;99875.25;7309658;19;129130;-41
2022/07/06 02:15:54;;;;;;;46.70;4.07;;;;;;;25.82;52.27;99861.78;7309015;19;131028;-38
2022/07/06 02:18:19;;;;;;;27.40;2.33;;;;;;;25.88;52.55;99866.41;7310786;19;130317;-40
2022/07/06 02:20:45;;;;;;;24.17;2.23;;;;;;;25.88;51.91;99864.59;7308268;19;129402;-38
2022/07/06 02:23:11;;;;;;;31.60;2.70;;;;;;;25.87;52.41;99862.94;7310277;19;129926;-38
2022/07/06 02:25:36;;;;;;;29.42;2.58;;;;;;;25.88;52.47;99859.31;7309880;19;130824;-41
2022/07/06 02:28:01;;;;;;;37.73;3.40;;;;;;;25.87;52.35;99862.94;7308396;19;129674;-38
2022/07/06 02:30:27;;;;;;;37.10;3.10;;;;;;;25.83;52.02;99866.88;7307538;19;128856;-39
2022/07/06 02:32:53;;;;;;;41.13;3.50;;;;;;;25.85;52.49;99869.34;7309696;19;128836;-40
2022/07/06 02:35:18;;;;;;;12.67;1.47;;;;;;;25.85;52.25;99869.34;7315317;19;130063;-41
2022/07/06 02:37:43;;;;;;;18.20;2.00;;;;;;;25.83;52.48;99872.16;7316829;19;130435;-38
2022/07/06 02:40:09;;;;;;;23.60;2.33;;;;;;;25.85;52.44;99859.63;7315012;19;128997;-39
2022/07/06 02:42:35;;;;;;;31.87;2.83;;;;;;;25.87;52.08;99873.47;7317508;19;129172;-39
2022/07/06 02:45:01;;;;;;;41.50;3.67;;;;;;;25.84;52.25;99868.53;7315777;19;130519;-38
2022/07/06 02:47:26;;;;;;;30.63;2.80;;;;;;;25.83;51.90;99861.63;7317500;19;130973;-38
2022/07/06 02:49:52;;;;;;;28.97;2.50;;;;;;;25.83;52.14;99856.34;7315600;19;129963;-39
2022/07/06 02:52:18;;;;;;;29.80;2.47;;;;;;;25.82;52.21;99857.31;7318953;19;129620;-38
2022/07/06 02:54:43;;;;;;;28.40;2.37;;;;;;;25.84;52.63;99857.16;7317483;19;129309;-38
2022/07/06 02:57:09;;;;;;;29.10;2.53;;;;;;;25.83;53.16;99851.09;7316707;19;129632;-39
2022/07/06 02:59:36;;;;;;;38.07;3.23;;;;;;;25.76;53.05;99841.31;7314695;19;130132;-40
2022/07/06 03:02:02;;;;;;;25.45;2.17;;;;;;;25.72;52.27;99838.19;7316663;19;129783;-39
2022/07/06 03:04:27;;;;;;;36.13;3.03;;;;;;;25.82;52.23;99861.78;7315781;19;129952;-40
2022/07/06 03:06:52;;;;;;;17.37;2.13;;;;;;;25.81;52.07;99850.41;7314869;19;130529;-38
2022/07/06 03:09:18;;;;;;;35.00;2.67;;;;;;;25.82;52.86;99874.94;7314831;19;129164;-39
2022/07/06 03:11:43;;;;;;;25.10;2.40;;;;;;;25.81;52.30;99868.84;7317542;19;130326;-38
2022/07/06 03:14:09;;;;;;;40.43;3.40;;;;;;;25.81;52.38;99876.75;7315348;19;129474;-39
2022/07/06 03:16:34;;;;;;;34.27;2.93;;;;;;;25.82;52.89;99880.22;7315815;19;129098;-38
2022/07/06 03:18:59;;;;;;;51.13;3.88;;;;;;;25.81;52.59;99879.38;7313408;19;130382;-37
2022/07/06 03:21:25;;;;;;;37.07;3.33;;;;;;;25.75;52.42;99866.84;7310349;19;130144;-39
2022/07/06 03:23:51;;;;;;;46.57;4.00;;;;;;;25.81;52.63;99874.13;7316341;19;129465;-37
2022/07/06 03:26:16;;;;;;;35.90;3.30;;;;;;;25.75;52.12;99866.03;7314242;19;130497;-39
2022/07/06 03:28:41;;;;;;;46.70;3.83;;;;;;;25.83;52.70;99881.84;7312773;19;128909;-38
2022/07/06 03:31:07;;;;;;;24.33;2.10;;;;;;;25.80;52.57;99871.66;7315425;19;129316;-39
2022/07/06 03:33:32;;;;;;;42.17;3.77;;;;;;;25.79;52.09;99865.53;7314305;19;129793;-39
2022/07/06 03:35:58;;;;;;;32.37;2.97;;;;;;;25.77;52.37;99878.03;7315129;19;129276;-39
2022/07/06 03:38:23;;;;;;;55.60;4.80;;;;;;;25.76;52.17;99876.41;7314209;19;130134;-38
2022/07/06 03:40:49;;;;;;;25.37;2.67;;;;;;;25.76;52.51;99884.31;7311765;19;129545;-39
2022/07/06 03:43:14;;;;;;;38.40;3.47;;;;;;;25.77;52.74;99880.66;7315198;19;129780;-38
2022/07/06 03:45:39;;;;;;;22.07;2.17;;;;;;;25.78;52.46;99874.44;7312729;19;130234;-39
2022/07/06 03:48:05;;;;;;;22.50;2.25;;;;;;;25.79;52.14;99881.34;7314745;19;129557;-38
2022/07/06 03:50:31;;;;;;;52.47;4.47;;;;;;;25.78;52.36;99884.97;7311443;19;130299;-39
2022/07/06 03:52:56;;;;;;;17.60;2.00;;;;;;;25.76;52.50;99886.94;7314367;19;129898;-39
2022/07/06 03:55:21;;;;;;;41.43;3.40;;;;;;;25.76;52.97;99886.94;7314258;19;129156;-38
2022/07/06 03:57:47;;;;;;;47.17;4.10;;;;;;;25.77;52.24;99887.78;7314464;19;129317;-40
2022/07/06 04:00:13;;;;;;;22.67;2.43;;;;;;;25.73;53.06;99888.06;7311527;19;128911;-38
2022/07/06 04:02:38;;;;;;;36.67;3.17;;;;;;;25.66;52.33;99878.34;7313953;19;129164;-39
2022/07/06 04:05:04;;;;;;;33.93;3.23;;;;;;;25.75;53.15;99885.28;7312901;19;130350;-40
2022/07/06 04:07:30;;;;;;;38.20;3.13;;;;;;;25.75;52.36;99884.47;7312430;19;130984;-39
2022/07/06 04:09:55;;;;;;;30.53;2.73;;;;;;;25.76;52.15;99884.31;7311136;19;129083;-38
2022/07/06 04:12:21;;;;;;;41.17;3.63;;;;;;;25.79;52.42;99883.16;7312849;19;130886;-40
2022/07/06 04:14:46;;;;;;;54.80;4.47;;;;;;;25.78;52.73;99881.50;7312812;19;130045;-38
2022/07/06 04:19:55;;;;;;;21.23;2.22;;;;;;;25.79;53.19;99894.53;7311074;19;129046;-38
2022/07/06 04:22:20;;;;;;;32.03;2.97;;;;;;;25.77;52.43;99883.31;7312519;19;130085;-39
2022/07/06 04:24:46;;;;;;;40.20;4.00;;;;;;;25.77;52.42;99888.56;7311926;19;129307;-42
2022/07/06 04:27:11;;;;;;;25.37;2.40;;;;;;;25.74;53.25;99883.63;7312453;19;129763;-40
2022/07/06 04:29:37;;;;;;;34.30;3.33;;;;;;;25.71;53.38;99891.84;7311038;19;128842;-38
2022/07/06 04:32:02;;;;;;;51.87;4.47;;;;;;;25.73;52.33;99898.59;7310527;19;130948;-39
2022/07/06 04:34:28;;;;;;;44.93;3.93;;;;;;;25.72;51.94;99905.88;7311583;19;129496;-38
2022/07/06 04:36:53;;;;;;;38.27;3.23;;;;;;;25.72;52.06;99893.50;7311530;19;129648;-38
2022/07/06 04:39:19;;;;;;;38.90;3.67;;;;;;;25.72;52.82;99900.59;7311987;19;129062;-38
2022/07/06 04:41:44;;;;;;;23.63;2.37;;;;;;;25.66;53.14;99902.88;7309253;19;131078;-38
2022/07/06 04:44:09;;;;;;;35.70;3.00;;;;;;;25.70;52.16;99900.75;7312020;19;129176;-38
2022/07/06 04:46:35;;;;;;;27.57;2.93;;;;;;;25.71;51.81;99899.75;7312578;19;129257;-39
2022/07/06 04:49:00;;;;;;;32.13;2.78;;;;;;;25.70;52.54;99903.38;7310921;19;129423;-39
2022/07/06 04:51:25;;;;;;;32.60;3.30;;;;;;;25.67;52.62;99908.94;7312140;19;131978;-39
2022/07/06 04:53:51;;;;;;;42.40;4.03;;;;;;;25.59;52.36;99893.13;7312079;19;129525;-39
2022/07/06 04:56:16;;;;;;;28.93;2.50;;;;;;;25.67;51.93;99908.94;7309747;19;129102;-42
2022/07/06 04:58:42;;;;;;;34.77;3.17;;;;;;;25.64;52.74;99906.63;7312011;19;129147;-37
2022/07/06 05:01:07;;;;;;;22.40;2.17;;;;;;;25.63;52.19;99912.91;7311771;19;130068;-40
2022/07/06 05:03:36;;;;;;;36.80;3.60;;;;;;;25.64;52.50;99911.91;7312110;19;129907;-38
2022/07/06 05:06:04;;;;;;;32.85;3.33;;;;;;;25.62;54.56;99912.06;7312745;19;129169;-37
2022/07/06 05:08:30;;;;;;;49.10;4.47;;;;;;;25.59;51.84;99922.09;7312624;19;129068;-38
2022/07/06 05:10:55;;;;;;;32.80;2.90;;;;;;;25.60;52.66;99915.84;7309614;19;130860;-39
2022/07/06 05:13:20;;;;;;;25.13;2.57;;;;;;;25.62;51.40;99916.50;7313305;19;129582;-39
2022/07/06 05:15:46;;;;;;;23.33;2.33;;;;;;;25.60;52.19;99923.75;7312457;19;129410;-39
2022/07/06 05:18:11;;;;;;;36.47;3.23;;;;;;;25.52;52.31;99905.25;7312635;19;129417;-39
2022/07/06 05:20:37;;;;;;;20.07;2.30;;;;;;;25.64;51.97;99922.44;7311051;19;130047;-39
2022/07/06 05:23:02;;;;;;;19.47;2.13;;;;;;;25.62;52.58;99927.03;7312735;19;129132;-40
2022/07/06 05:25:28;;;;;;;39.53;3.47;;;;;;;25.61;51.71;99930.66;7311751;19;129277;-38
2022/07/06 05:27:53;;;;;;;28.60;2.63;;;;;;;25.63;52.18;99937.41;7313491;19;128836;-37
2022/07/06 05:30:19;;;;;;;23.83;2.35;;;;;;;25.59;51.67;99949.25;7310548;19;129607;-39
2022/07/06 05:32:44;;;;;;;24.93;2.30;;;;;;;25.59;52.10;99945.78;7312518;19;129203;-39
2022/07/06 05:35:10;;;;;;;22.57;2.17;;;;;;;25.61;52.01;99951.72;7312132;19;130656;-39
2022/07/06 05:37:35;;;;;;;33.63;2.90;;;;;;;25.60;52.56;99950.09;7312161;19;129085;-38
2022/07/06 05:40:01;;;;;;;20.37;2.37;;;;;;;25.62;51.16;99958.63;7309587;19;129137;-39
2022/07/06 05:42:26;;;;;;;44.23;3.90;;;;;;;25.61;52.03;99962.25;7323628;19;130335;-39
2022/07/06 05:44:56;;;;;;;36.40;3.40;;;;;;;25.58;53.17;99963.38;7300527;19;130541;-41
2022/07/06 05:50:12;;;;;;;90.93;7.35;;;;;;;25.55;52.48;99962.91;7304179;19;129817;-38
2022/07/06 05:52:38;;;;;;;32.22;3.08;;;;;;;25.53;53.45;99964.84;7308523;19;129241;-40
2022/07/06 05:55:04;;;;;;;31.25;2.88;;;;;;;25.52;52.85;99969.28;7310588;19;129169;-42
2022/07/06 05:57:29;;;;;;;9.13;1.43;;;;;;;25.54;53.55;99966.50;7306668;19;129840;-41
2022/07/06 05:59:55;;;;;;;36.00;3.13;;;;;;;25.50;54.13;99965.16;7308829;19;130240;-39
2022/07/06 06:02:20;;;;;;;28.37;2.40;;;;;;;25.49;53.01;99974.03;7308258;19;130498;-40
2022/07/06 06:04:46;;;;;;;26.77;2.40;;;;;;;25.51;53.90;99970.28;7311505;19;130060;-40
2022/07/06 06:07:11;;;;;;;23.57;2.20;;;;;;;25.48;53.71;99960.06;7310510;19;129232;-40
2022/07/06 06:09:36;;;;;;;22.67;2.43;;;;;;;25.52;53.79;99963.19;7314754;19;130860;-41
2022/07/06 06:12:02;;;;;;;26.03;2.43;;;;;;;25.49;52.79;99971.38;7318536;19;129335;-41
2022/07/06 06:14:27;;;;;;;33.80;3.15;;;;;;;25.42;54.21;99954.59;7317586;19;129411;-40
2022/07/06 06:16:53;;;;;;;27.60;2.85;;;;;;;25.51;53.45;99979.97;7318254;19;129273;-41
2022/07/06 06:19:18;;;;;;;33.60;2.90;;;;;;;25.49;52.43;99974.88;7316764;19;130716;-41
2022/07/06 06:21:44;;;;;;;29.30;2.30;;;;;;;25.49;53.62;99979.28;7315580;19;130336;-38
2022/07/06 06:24:09;;;;;;;10.17;1.53;;;;;;;25.49;54.19;99979.28;7316850;19;129328;-41
2022/07/06 06:26:34;;;;;;;35.73;3.30;;;;;;;25.48;53.38;99988.19;7317534;19;129407;-41
2022/07/06 06:29:00;;;;;;;26.37;2.73;;;;;;;25.49;54.37;99984.56;7318051;19;131559;-42
2022/07/06 06:31:25;;;;;;;32.33;3.17;;;;;;;25.47;53.01;99986.50;7317631;19;129937;-40
2022/07/06 06:33:50;;;;;;;56.08;4.90;;;;;;;25.46;52.71;99995.41;7316320;19;129168;-39
2022/07/06 06:36:16;;;;;;;27.48;2.85;;;;;;;25.46;53.23;99995.41;7317729;19;129650;-41
2022/07/06 06:38:42;;;;;;;20.23;2.03;;;;;;;25.47;53.62;99992.63;7317980;19;130215;-41
2022/07/06 06:41:07;;;;;;;26.83;2.43;;;;;;;25.46;53.28;99990.13;7315596;19;130092;-41
2022/07/06 06:43:33;;;;;;;26.70;2.63;;;;;;;25.47;53.70;100003.16;7317690;19;129215;-40
2022/07/06 06:45:58;;;;;;;34.78;3.10;;;;;;;25.46;54.00;99985.72;7317737;19;129360;-40
2022/07/06 06:48:23;;;;;;;37.23;3.30;;;;;;;25.41;52.44;99987.16;7315870;19;130872;-41
2022/07/06 06:50:49;;;;;;;22.97;2.30;;;;;;;25.45;53.00;99993.75;7315385;19;129633;-41
2022/07/06 06:53:14;;;;;;;22.20;2.10;;;;;;;25.44;52.65;99995.56;7318422;19;129090;-41
2022/07/06 06:55:40;;;;;;;133.53;10.47;;;;;;;25.44;52.51;99998.19;7314485;19;131166;-40
2022/07/06 06:58:05;;;;;;;36.23;3.43;;;;;;;25.45;53.45;99999.84;7316321;19;130218;-42
2022/07/06 07:00:31;;;;;;;39.30;3.40;;;;;;;25.42;52.58;99994.88;7314105;19;129560;-40
2022/07/06 07:02:56;;;;;;;21.00;2.60;;;;;;;25.44;52.48;100000.00;7315476;19;128984;-42
2022/07/06 07:05:22;;;;;;;33.33;2.95;;;;;;;25.46;52.89;100001.50;7316141;19;129608;-41
2022/07/06 07:07:47;;;;;;;23.17;2.25;;;;;;;25.44;52.16;100007.88;7316393;19;129031;-40
2022/07/06 07:10:12;;;;;;;7.90;1.07;;;;;;;25.47;53.83;100004.94;7314589;19;129611;-40
2022/07/06 07:12:48;;;;;;;30.50;2.57;;;;;;;25.45;54.95;100007.72;7316549;19;129115;-41
2022/07/06 07:15:14;;;;;;;32.60;2.67;;;;;;;25.44;52.90;100013.16;7315762;19;130702;-39
2022/07/06 07:17:40;;;;;;;8.83;1.63;;;;;;;25.34;52.30;99991.34;7315987;19;129531;-42
2022/07/06 07:20:06;;;;;;;37.80;3.55;;;;;;;25.43;52.45;100022.03;7312890;19;130438;-39
2022/07/06 07:22:32;;;;;;;15.97;1.70;;;;;;;25.44;53.24;100011.34;7315216;19;129185;-39
2022/07/06 07:24:58;;;;;;;28.63;2.37;;;;;;;25.42;52.48;100020.41;7316164;19;128978;-42
2022/07/06 07:27:24;;;;;;;;;;;;;;;25.46;55.28;100014.66;7313896;19;130232;-40
2022/07/06 07:29:49;;;;;;;29.08;2.70;;;;;;;25.44;53.60;100021.88;7315661;19;130236;-41
2022/07/06 07:32:14;;;;;;;27.90;2.60;;;;;;;25.42;52.10;100015.13;7316577;19;130929;-40
2022/07/06 07:34:40;;;;;;;22.23;2.07;;;;;;;25.43;52.90;100022.03;7314982;19;130143;-40
2022/07/06 07:37:05;;;;;;;28.53;2.43;;;;;;;25.44;53.54;100021.06;7315072;19;130336;-42
2022/07/06 07:39:31;;;;;;;27.80;2.53;;;;;;;25.41;52.89;100024.84;7313888;19;129703;-41
2022/07/06 07:41:56;;;;;;;30.37;2.57;;;;;;;25.41;52.29;100019.56;7314350;19;129366;-42
2022/07/06 07:44:21;;;;;;;25.10;2.25;;;;;;;25.41;52.53;100026.63;7315343;19;129029;-41
2022/07/06 07:46:47;;;;;;;25.77;2.27;;;;;;;25.38;52.32;100025.16;7314917;19;129153;-40
2022/07/06 07:49:12;;;;;;;33.90;2.87;;;;;;;25.39;51.94;100026.78;7314443;19;130202;-41
2022/07/06 07:51:38;;;;;;;20.70;1.77;;;;;;;25.41;51.81;100030.09;7315515;19;128959;-42
2022/07/06 07:54:03;;;;;;;17.73;2.20;;;;;;;25.41;52.42;100024.00;7314705;19;129398;-41
2022/07/06 07:56:28;;;;;;;28.70;2.37;;;;;;;25.39;53.10;100021.53;7312707;19;129356;-42
2022/07/06 07:58:54;;;;;;;24.60;2.27;;;;;;;25.40;53.36;100032.88;7314492;19;129218;-41
2022/07/06 08:01:19;;;;;;;42.23;3.33;;;;;;;25.36;52.58;100021.84;7313471;19;129256;-40
2022/07/06 08:03:44;;;;;;;46.97;3.93;;;;;;;25.33;51.35;100010.75;7313360;19;129445;-41
2022/07/06 08:06:10;;;;;;;18.53;2.00;;;;;;;25.40;52.91;100023.16;7314601;19;130061;-41
2022/07/06 08:08:36;;;;;;;30.37;2.63;;;;;;;25.32;51.92;100015.19;7313975;19;129640;-41
2022/07/06 08:11:01;;;;;;;25.63;2.10;;;;;;;25.37;52.27;100022.66;7314652;19;131303;-42
2022/07/06 08:13:26;;;;;;;28.53;2.67;;;;;;;25.38;51.20;100034.84;7314385;19;130381;-42
2022/07/06 08:15:52;;;;;;;42.03;3.47;;;;;;;25.38;52.54;100019.88;7313488;19;130171;-42
2022/07/06 08:18:17;;;;;;;28.57;2.57;;;;;;;25.41;53.04;100018.72;7313804;19;130438;-39
2022/07/06 08:20:43;;;;;;;9.37;1.20;;;;;;;25.40;52.56;100032.88;7311984;19;129096;-41
2022/07/06 08:23:08;;;;;;;33.33;2.80;;;;;;;25.31;51.63;100017.97;7314646;19;128896;-40
2022/07/06 08:25:33;;;;;;;32.00;2.73;;;;;;;25.39;52.08;100020.69;7314689;19;129457;-42
2022/07/06 08:28:01;;;;;;;42.60;3.50;;;;;;;25.40;52.84;100027.63;7310952;19;130429;-40
2022/07/06 08:30:26;;;;;;;25.10;2.28;;;;;;;25.37;52.07;100034.00;7311683;19;129067;-41
2022/07/06 08:32:52;;;;;;;30.00;2.47;;;;;;;25.34;52.45;100022.91;7314174;19;129241;-40
2022/07/06 08:35:17;;;;;;;15.53;1.57;;;;;;;25.34;52.18;100028.19;7313805;19;131027;-40
2022/07/06 08:37:43;;;;;;;22.23;1.97;;;;;;;25.35;51.21;100024.63;7312464;19;129585;-38
2022/07/06 08:40:10;;;;;;;40.30;3.33;;;;;;;25.36;51.89;100027.09;7306800;19;129193;-39
2022/07/06 08:42:36;;;;;;;37.75;2.97;;;;;;;25.35;51.63;100033.31;7310218;19;129275;-42
2022/07/06 08:45:06;;;;;;;29.35;2.65;;;;;;;25.35;52.15;100032.53;7304249;19;129917;-41
2022/07/06 08:47:31;;;;;;;29.15;2.72;;;;;;;25.34;51.50;100029.03;7313336;19;131557;-41
2022/07/06 08:49:57;;;;;;;22.73;2.13;;;;;;;25.38;52.67;100027.78;7311919;19;129076;-41
2022/07/06 08:52:23;;;;;;;27.13;2.43;;;;;;;25.35;51.79;100029.88;7313987;19;129135;-41
2022/07/06 08:54:49;;;;;;;22.50;1.88;;;;;;;25.36;52.41;100034.16;7313400;19;129598;-40
2022/07/06 08:57:15;;;;;;;23.30;2.10;;;;;;;25.35;51.80;100035.16;7314241;19;130531;-39
2022/07/06 08:59:40;;;;;;;14.70;1.53;;;;;;;25.34;52.22;100028.19;7312197;19;128861;-41
2022/07/06 09:02:06;;;;;;;36.75;3.13;;;;;;;25.31;50.63;100025.88;7311118;19;128971;-41
2022/07/06 09:04:36;;;;;;;21.87;2.07;;;;;;;25.31;53.10;100031.13;7313379;19;129603;-42
2022/07/06 09:07:02;;;;;;;23.30;1.95;;;;;;;25.29;52.36;100025.19;7313662;19;129483;-40
2022/07/06 09:09:30;;;;;;;30.73;2.77;;;;;;;25.31;52.80;100031.13;7312128;19;129550;-40
2022/07/06 09:11:56;;;;;;;14.60;1.63;;;;;;;25.34;51.16;100028.19;7313763;19;129396;-42
2022/07/06 09:14:22;;;;;;;27.30;2.43;;;;;;;25.33;51.59;100031.81;7312981;19;129097;-41
2022/07/06 09:16:52;;;;;;;25.33;2.13;;;;;;;25.32;52.69;100035.44;7314276;19;130271;-42
2022/07/06 09:19:18;;;;;;;32.25;2.70;;;;;;;25.23;52.05;100024.00;7311762;19;128849;-39
2022/07/06 09:21:43;;;;;;;27.87;2.53;;;;;;;25.33;51.24;100042.34;7312303;19;128955;-43
2022/07/06 09:24:11;;;;;;;18.73;1.77;;;;;;;25.31;50.63;100041.66;7313390;19;129166;-42
2022/07/06 09:26:36;;;;;;;46.30;3.00;;;;;;;25.24;51.78;100027.44;7312020;19;130291;-42
2022/07/06 09:29:03;;;;;;;43.27;3.57;;;;;;;25.30;50.07;100043.44;7311496;19;128801;-41
2022/07/06 09:31:29;;;;;;;47.30;3.63;;;;;;;25.30;52.32;100050.53;7311686;19;129878;-41
2022/07/06 09:33:59;;;;;;;37.77;3.23;;;;;;;25.30;52.06;100042.66;7311676;19;130263;-41
2022/07/06 09:36:48;;;;;;;36.47;2.85;;;;;;;25.30;53.79;100037.38;7312885;19;129789;-42
2022/07/06 09:39:25;;;;;;;37.38;2.97;;;;;;;25.29;53.28;100035.72;7311231;19;128950;-42
2022/07/06 09:42:03;;;;;;;22.60;2.00;;;;;;;25.31;53.59;100033.75;7311329;19;128986;-38
2022/07/06 09:44:28;;;;;;;31.63;2.65;;;;;;;25.28;50.99;100034.06;7310009;19;130288;-41
2022/07/06 09:46:59;;;;;;;28.17;2.67;;;;;;;25.28;53.00;100031.44;7312095;19;130431;-42
2022/07/06 09:49:25;;;;;;;30.95;2.50;;;;;;;25.26;50.57;100031.59;7310589;19;129073;-40
2022/07/06 09:51:55;;;;;;;24.65;2.22;;;;;;;25.25;51.84;100035.22;7312319;19;129247;-41
2022/07/06 09:54:21;;;;;;;22.25;1.83;;;;;;;25.28;51.24;100041.97;7311625;19;130384;-40
2022/07/06 09:56:50;;;;;;;21.10;1.93;;;;;;;25.28;50.29;100028.81;7312664;19;129645;-39
2022/07/06 09:59:18;;;;;;;30.02;2.65;;;;;;;25.28;51.23;100031.44;7310129;19;129441;-41
2022/07/06 10:01:44;;;;;;;13.18;1.42;;;;;;;25.28;51.08;100031.44;7311259;19;128990;-41
2022/07/06 10:04:13;;;;;;;28.53;2.37;;;;;;;25.27;51.47;100030.59;7312001;19;129500;-41
2022/07/06 10:06:39;;;;;;;36.90;3.40;;;;;;;25.27;51.82;100027.16;7310889;19;130304;-42
2022/07/06 10:09:07;;;;;;;32.05;2.78;;;;;;;25.24;51.37;100022.19;7310993;19;128960;-42
2022/07/06 10:11:39;;;;;;;32.10;2.85;;;;;;;25.27;52.08;100021.91;7312011;19;128974;-42
2022/07/06 10:14:06;;;;;;;34.50;2.83;;;;;;;25.26;50.93;100026.31;7311148;19;129702;-41
2022/07/06 10:16:35;;;;;;;28.65;2.55;;;;;;;25.27;51.12;100029.78;7311555;19;130421;-41
2022/07/06 10:19:03;;;;;;;32.90;2.80;;;;;;;25.27;52.48;100027.16;7309592;19;129669;-41
2022/07/06 10:21:29;;;;;;;37.88;3.30;;;;;;;25.26;50.89;100028.13;7310629;19;128906;-42
2022/07/06 10:23:56;;;;;;;26.03;2.20;;;;;;;25.27;50.82;100027.16;7310897;19;129090;-40
2022/07/06 10:26:23;;;;;;;30.52;2.35;;;;;;;25.28;50.37;100023.53;7311087;19;130310;-41
2022/07/06 10:28:49;;;;;;;28.70;2.40;;;;;;;25.27;51.16;100027.16;7309642;19;128932;-42
2022/07/06 10:31:16;;;;;;;18.43;1.70;;;;;;;25.21;50.73;100025.97;7311931;19;129852;-41
2022/07/06 10:33:42;;;;;;;30.58;2.78;;;;;;;25.26;50.88;100020.22;7311437;19;129628;-40
2022/07/06 10:36:09;;;;;;;20.30;1.88;;;;;;;25.27;49.49;100027.16;7310335;19;130293;-39
2022/07/06 10:38:35;;;;;;;32.83;2.97;;;;;;;25.29;51.54;100030.44;7310863;19;128727;-41
2022/07/06 10:41:09;;;;;;;22.75;2.00;;;;;;;25.27;53.52;100021.91;7308612;19;129346;-42
2022/07/06 10:43:36;;;;;;;33.45;2.63;;;;;;;25.25;51.81;100021.22;7311464;19;130915;-41
2022/07/06 10:46:10;;;;;;;45.53;3.72;;;;;;;25.26;52.64;100009.69;7308763;19;131042;-40
2022/07/06 10:48:43;;;;;;;27.92;2.40;;;;;;;25.25;52.79;100008.06;7309398;19;128779;-41
2022/07/06 10:51:12;;;;;;;25.25;2.10;;;;;;;25.16;51.56;99998.44;7310679;19;128797;-41
2022/07/06 10:53:40;;;;;;;38.72;3.28;;;;;;;25.23;50.76;100010.00;7310985;19;130508;-42
2022/07/06 10:56:11;;;;;;;34.72;2.92;;;;;;;25.22;51.31;100011.81;7315094;19;130241;-41
2022/07/06 10:58:52;;;;;;;21.08;2.45;;;;;;;25.24;53.33;100012.50;7316748;19;128944;-42
2022/07/06 11:01:20;;;;;;;22.20;1.83;;;;;;;25.22;50.60;100009.19;7315735;19;129053;-40
2022/07/06 11:03:50;;;;;;;50.00;4.38;;;;;;;25.23;50.45;100010.00;7315978;19;129521;-40
2022/07/06 11:06:23;;;;;;;20.05;1.73;;;;;;;25.24;52.12;100014.28;7316917;19;130865;-41
2022/07/06 11:08:57;;;;;;;25.77;2.10;;;;;;;25.23;52.02;100010.84;7316920;19;129090;-40
2022/07/06 11:11:31;;;;;;;29.45;2.55;;;;;;;25.24;52.73;100001.97;7316422;19;129322;-41
2022/07/06 11:14:18;;;;;;;30.63;3.13;;;;;;;25.24;50.74;99998.50;7316545;19;129065;-42
2022/07/06 11:16:46;;;;;;;23.92;2.03;;;;;;;25.22;52.25;99989.94;7315959;19;129144;-41